Time;durP1;ratioP1;P1;durP2;ratioP2;P2;SDS_P1;SDS_P2;PMS_P1;PMS_P2;Temp;Humidity;BMP_temperature;BMP_pressure;BME280_temperature;BME280_humidity;BME280_pressure;Samples;Min_cycle;Max_cycle;Signal;HPM_P1;HPM_P2
2021/08/21 00:00:12;;;;;;;;;;;;;;;17.42;81.10;99802.25;5051413;28;19931;-70
2021/08/21 00:02:42;;;;;;;;;;;;;;;17.27;81.15;99800.09;5052920;28;20408;-69
2021/08/21 00:05:12;;;;;;;;;;;;;;;17.24;81.56;99792.44;5050744;28;20297;-69
2021/08/21 00:07:40;;;;;;;;;;;;;;;17.25;81.37;99790.72;5051088;28;20036;-70
2021/08/21 00:10:22;;;;;;;;;;;;;;;17.10;81.56;99804.84;5051809;28;19925;-70
2021/08/21 00:12:51;;;;;;;;;;;;;;;17.01;81.71;99796.50;5052308;28;19932;-70
2021/08/21 00:15:20;;;;;;;;;;;;;;;16.96;81.60;99801.78;5052360;28;20106;-70
2021/08/21 00:17:50;;;;;;;;;;;;;;;16.97;81.91;99806.03;5059618;28;19925;-70
2021/08/21 00:20:19;;;;;;;;;;;;;;;17.18;82.22;99800.31;5050567;28;19979;-70
2021/08/21 00:22:48;;;;;;;;;;;;;;;17.37;81.96;99806.69;5051958;28;20011;-71
2021/08/21 00:25:17;;;;;;;;;;;;;;;17.52;81.46;99807.22;5049216;28;20452;-70
2021/08/21 00:27:45;;;;;;;;;;;;;;;17.54;81.04;99805.47;5053408;28;20027;-69
2021/08/21 00:30:15;;;;;;;;;;;;;;;17.58;80.78;99807.91;5051900;28;20436;-69
2021/08/21 00:32:44;;;;;;;;;;;;;;;17.63;80.24;99805.19;5051248;28;19929;-69
2021/08/21 00:35:14;;;;;;;;;;;;;;;17.58;79.97;99800.16;5049409;28;19925;-70
2021/08/21 00:37:43;;;;;;;;;;;;;;;17.51;80.05;99802.91;5055555;28;19924;-70
2021/08/21 00:40:12;;;;;;;;;;;;;;;17.43;79.97;99806.56;5055689;28;20378;-70
2021/08/21 00:42:41;;;;;;;;;;;;;;;17.44;80.05;99808.22;5056283;28;19990;-70
2021/08/21 00:45:10;;;;;;;;;;;;;;;17.54;80.25;99800.31;5053508;28;20023;-70
2021/08/21 00:47:39;;;;;;;;;;;;;;;17.53;80.06;99796.88;5054627;28;19936;-70
2021/08/21 00:50:08;;;;;;;;;;;;;;;17.60;79.88;99806.13;5053853;28;19925;-71
2021/08/21 00:52:39;;;;;;;;;;;;;;;17.50;79.89;99801.22;4991157;28;20435;-70
2021/08/21 00:55:09;;;;;;;;;;;;;;;17.41;80.19;99807.47;4994746;28;20329;-70
2021/08/21 00:57:38;;;;;;;;;;;;;;;17.53;80.31;99802.03;5068730;28;20353;-70
2021/08/21 01:00:07;;;;;;;;;;;;;;;17.52;80.07;99802.03;5076546;28;19931;-70
2021/08/21 01:02:41;;;;;;;;;;;;;;;17.47;80.10;99801.31;5053364;28;20320;-69
2021/08/21 01:05:14;;;;;;;;;;;;;;;17.44;80.57;99803.06;5052380;28;19925;-69
2021/08/21 01:07:45;;;;;;;;;;;;;;;17.43;80.31;99800.53;5070554;28;19925;-69
2021/08/21 01:10:18;;;;;;;;;;;;;;;17.38;80.42;99803.25;5056548;28;19924;-69
2021/08/21 01:12:49;;;;;;;;;;;;;;;17.30;80.62;99809.47;5055195;28;19971;-70
2021/08/21 01:15:19;;;;;;;;;;;;;;;17.23;80.77;99798.47;5054921;28;19948;-70
2021/08/21 01:18:01;;;;;;;;;;;;;;;17.19;81.13;99804.59;5061157;28;20024;-70
2021/08/21 01:20:30;;;;;;;;;;;;;;;17.13;81.13;99794.44;5054193;28;19925;-69
2021/08/21 01:23:01;;;;;;;;;;;;;;;17.05;81.40;99798.97;5054568;28;19931;-70
2021/08/21 01:25:40;;;;;;;;;;;;;;;17.02;81.57;99804.19;5051630;28;20370;-70
2021/08/21 01:28:14;;;;;;;;;;;;;;;16.98;81.81;99800.00;5022669;28;19924;-70
2021/08/21 01:30:54;;;;;;;;;;;;;;;16.97;81.91;99800.88;5054980;28;19924;-69
2021/08/21 01:33:30;;;;;;;;;;;;;;;17.07;82.21;99799.75;5038491;28;19935;-70
2021/08/21 01:35:59;;;;;;;;;;;;;;;17.13;82.08;99801.34;5037213;28;19924;-70
2021/08/21 01:38:31;;;;;;;;;;;;;;;17.07;81.96;99802.34;5036418;28;20073;-70
2021/08/21 01:41:20;;;;;;;;;;;;;;;16.94;82.06;99800.94;5021666;28;20346;-70
2021/08/21 01:43:56;;;;;;;;;;;;;;;16.87;82.43;99804.53;5028819;28;20366;-71
2021/08/21 01:46:25;;;;;;;;;;;;;;;16.83;82.58;99802.09;5052440;28;19986;-70
2021/08/21 01:49:08;;;;;;;;;;;;;;;16.93;82.54;99799.25;5039186;28;19932;-70
2021/08/21 01:51:37;;;;;;;;;;;;;;;17.09;82.65;99792.81;5054131;28;19925;-69
2021/08/21 01:54:06;;;;;;;;;;;;;;;17.20;82.49;99798.53;5039713;28;19925;-70
2021/08/21 01:56:43;;;;;;;;;;;;;;;17.30;82.20;99791.41;5075331;28;19947;-70
2021/08/21 01:59:26;;;;;;;;;;;;;;;17.35;81.75;99795.56;5055042;28;19933;-70
2021/08/21 02:02:14;;;;;;;;;;;;;;;17.36;81.46;99789.53;5060505;28;19932;-70
2021/08/21 02:05:08;;;;;;;;;;;;;;;17.34;81.33;99796.47;5033078;28;19957;-70
2021/08/21 02:07:40;;;;;;;;;;;;;;;17.21;81.09;99789.94;5055161;28;19925;-70
2021/08/21 02:10:12;;;;;;;;;;;;;;;17.15;81.45;99795.25;5055172;28;19947;-70
2021/08/21 02:12:41;;;;;;;;;;;;;;;17.04;81.41;99797.25;5054162;28;20417;-70
2021/08/21 02:15:14;;;;;;;;;;;;;;;16.95;81.85;99791.47;5052320;28;19924;-70
2021/08/21 02:17:49;;;;;;;;;;;;;;;16.86;82.00;99797.72;5014423;28;19929;-69
2021/08/21 02:20:46;;;;;;;;;;;;;;;16.77;82.19;99793.59;4972327;28;19926;-69
2021/08/21 02:23:21;;;;;;;;;;;;;;;16.70;82.51;99786.06;5001088;28;20299;-73
2021/08/21 02:25:56;;;;;;;;;;;;;;;16.82;82.90;99796.06;5018221;28;19930;-70
2021/08/21 02:28:35;;;;;;;;;;;;;;;16.69;82.70;99797.28;5021651;28;19929;-70
2021/08/21 02:31:13;;;;;;;;;;;;;;;16.62;82.90;99803.44;5008366;28;19930;-71
2021/08/21 02:33:42;;;;;;;;;;;;;;;16.69;83.10;99799.84;5009598;28;19929;-71
2021/08/21 02:36:12;;;;;;;;;;;;;;;16.77;82.98;99798.75;5014094;28;20086;-70
2021/08/21 02:38:46;;;;;;;;;;;;;;;16.82;82.67;99801.22;5014573;28;20274;-70
2021/08/21 02:41:19;;;;;;;;;;;;;;;16.78;82.63;99794.47;5015366;28;19925;-70
2021/08/21 02:43:48;;;;;;;;;;;;;;;16.76;82.45;99798.81;5012860;28;19926;-73
2021/08/21 02:46:21;;;;;;;;;;;;;;;16.62;82.38;99795.72;5013434;28;19972;-70
2021/08/21 02:48:50;;;;;;;;;;;;;;;16.57;82.44;99789.81;5011520;28;19925;-70
2021/08/21 02:51:22;;;;;;;;;;;;;;;16.48;82.15;99795.16;5008119;28;20410;-70
2021/08/21 02:53:52;;;;;;;;;;;;;;;16.42;82.43;99805.59;5012950;28;19925;-70
2021/08/21 02:56:21;;;;;;;;;;;;;;;16.51;82.70;99811.41;5010840;28;20359;-71
2021/08/21 02:58:52;;;;;;;;;;;;;;;16.64;82.85;99806.84;5027981;28;20375;-70
2021/08/21 03:01:26;;;;;;;;;;;;;;;16.75;82.85;99799.69;4995271;28;19926;-69
2021/08/21 03:03:57;;;;;;;;;;;;;;;16.61;82.22;99807.75;5025014;28;19926;-70
2021/08/21 03:06:25;;;;;;;;;;;;;;;16.59;82.40;99813.81;5017408;28;19926;-71
2021/08/21 03:08:55;;;;;;;;;;;;;;;16.63;82.45;99797.41;5013638;28;19932;-70
2021/08/21 03:11:25;;;;;;;;;;;;;;;16.63;82.32;99805.13;5012381;28;19925;-69
2021/08/21 03:14:21;;;;;;;;;;;;;;;16.63;82.25;99805.13;5009988;28;19925;-69
2021/08/21 03:16:52;;;;;;;;;;;;;;;16.64;82.56;99812.00;5024186;28;19991;-70
2021/08/21 03:19:20;;;;;;;;;;;;;;;16.69;82.34;99805.00;5030531;28;19925;-70
2021/08/21 03:21:50;;;;;;;;;;;;;;;16.66;82.05;99807.63;5032522;28;19925;-70
2021/08/21 03:24:21;;;;;;;;;;;;;;;16.63;82.40;99802.56;5019741;28;20375;-73
2021/08/21 03:26:50;;;;;;;;;;;;;;;16.64;82.16;99805.09;5032758;28;20028;-70
2021/08/21 03:29:19;;;;;;;;;;;;;;;16.60;82.21;99815.53;5047970;28;19932;-69
2021/08/21 03:31:48;;;;;;;;;;;;;;;16.64;82.33;99812.84;5031628;28;19932;-71
2021/08/21 03:34:18;;;;;;;;;;;;;;;16.64;82.07;99812.84;5044139;28;20025;-69
2021/08/21 03:36:47;;;;;;;;;;;;;;;16.54;82.02;99820.81;5030605;28;19980;-69
2021/08/21 03:39:15;;;;;;;;;;;;;;;16.35;82.03;99820.34;5033883;28;19932;-70
2021/08/21 03:41:44;;;;;;;;;;;;;;;16.24;82.02;99821.47;5033915;28;20350;-70
2021/08/21 03:44:13;;;;;;;;;;;;;;;16.10;82.39;99830.31;5030446;28;19937;-70
2021/08/21 03:46:41;;;;;;;;;;;;;;;16.00;82.55;99833.94;5031010;28;20367;-71
2021/08/21 03:49:10;;;;;;;;;;;;;;;15.96;82.62;99832.31;5030859;28;19925;-69
2021/08/21 03:51:40;;;;;;;;;;;;;;;16.03;83.05;99833.03;5052639;28;19925;-69
2021/08/21 03:54:11;;;;;;;;;;;;;;;16.16;83.00;99833.63;5029082;28;19929;-70
2021/08/21 03:56:42;;;;;;;;;;;;;;;16.22;82.68;99838.69;5032293;28;20330;-69
2021/08/21 03:59:10;;;;;;;;;;;;;;;16.23;82.47;99830.91;5031278;28;19925;-71
2021/08/21 04:01:52;;;;;;;;;;;;;;;16.21;82.35;99837.81;5031152;28;19975;-70
2021/08/21 04:04:29;;;;;;;;;;;;;;;16.27;82.49;99835.09;5030459;28;19925;-69
2021/08/21 04:07:07;;;;;;;;;;;;;;;16.30;81.83;99844.50;5031549;28;19931;-70
2021/08/21 04:09:37;;;;;;;;;;;;;;;16.16;81.87;99849.09;5032862;28;19932;-70
2021/08/21 04:12:07;;;;;;;;;;;;;;;16.10;81.77;99852.63;5033549;28;19925;-70
2021/08/21 04:14:47;;;;;;;;;;;;;;;16.05;81.86;99850.16;5034906;28;20282;-69
2021/08/21 04:17:19;;;;;;;;;;;;;;;15.99;81.87;99852.88;5044852;28;20366;-70
2021/08/21 04:19:51;;;;;;;;;;;;;;;16.02;82.15;99851.94;5056610;28;19925;-70
2021/08/21 04:22:25;;;;;;;;;;;;;;;16.34;81.82;99859.03;5054399;28;20389;-70
2021/08/21 04:25:00;;;;;;;;;;;;;;;16.54;81.49;99862.03;5055100;28;20039;-70
2021/08/21 04:27:32;;;;;;;;;;;;;;;16.69;81.23;99856.56;5055545;28;19932;-69
2021/08/21 04:30:02;;;;;;;;;;;;;;;16.80;80.70;99856.28;5056560;28;20027;-69
2021/08/21 04:32:35;;;;;;;;;;;;;;;16.84;80.33;99851.06;5056054;28;19925;-70
2021/08/21 04:35:04;;;;;;;;;;;;;;;16.91;80.14;99854.31;5051794;28;20015;-70
2021/08/21 04:37:37;;;;;;;;;;;;;;;16.94;80.06;99847.34;5052465;28;19925;-69
2021/08/21 04:40:11;;;;;;;;;;;;;;;16.98;79.65;99851.56;5071807;28;19932;-69
2021/08/21 04:42:44;;;;;;;;;;;;;;;17.03;79.57;99852.31;5023607;28;19975;-69
2021/08/21 04:45:13;;;;;;;;;;;;;;;17.09;79.42;99854.72;5049886;28;19925;-71
2021/08/21 04:47:42;;;;;;;;;;;;;;;17.10;79.31;99851.28;5054281;28;19928;-69
2021/08/21 04:50:18;;;;;;;;;;;;;;;17.18;79.11;99857.06;5056048;28;19925;-69
2021/08/21 04:52:48;;;;;;;;;;;;;;;17.17;79.09;99862.28;5055213;28;19925;-70
2021/08/21 04:55:17;;;;;;;;;;;;;;;17.23;79.08;99860.38;5053691;28;20338;-70
2021/08/21 04:57:46;;;;;;;;;;;;;;;17.41;78.91;99872.00;5058435;28;20255;-70
2021/08/21 05:00:15;;;;;;;;;;;;;;;17.52;78.66;99876.91;5046106;28;19924;-70
2021/08/21 05:02:57;;;;;;;;;;;;;;;17.54;78.50;99867.41;5056252;28;20375;-70
2021/08/21 05:05:30;;;;;;;;;;;;;;;17.57;78.20;99870.75;5027167;28;19925;-70
2021/08/21 05:08:03;;;;;;;;;;;;;;;17.72;78.24;99879.81;5067884;28;19925;-69
2021/08/21 05:10:32;;;;;;;;;;;;;;;17.82;77.87;99870.94;5037740;28;19932;-70
2021/08/21 05:13:02;;;;;;;;;;;;;;;17.87;77.65;99869.94;5049600;28;19974;-69
2021/08/21 05:15:33;;;;;;;;;;;;;;;17.99;77.31;99868.75;5060409;28;19968;-70
2021/08/21 05:18:14;;;;;;;;;;;;;;;18.10;77.28;99877.03;5053552;28;19925;-70
2021/08/21 05:21:04;;;;;;;;;;;;;;;18.22;77.14;99876.69;5035597;28;19926;-69
2021/08/21 05:23:39;;;;;;;;;;;;;;;18.32;77.08;99872.94;5035248;28;20432;-70
2021/08/21 05:26:08;;;;;;;;;;;;;;;18.45;77.05;99878.63;5053326;28;19966;-70
2021/08/21 05:28:37;;;;;;;;;;;;;;;18.60;77.04;99873.00;5052795;28;19928;-71
2021/08/21 05:31:10;;;;;;;;;;;;;;;18.73;76.52;99874.34;5022420;28;19924;-73
2021/08/21 05:33:39;;;;;;;;;;;;;;;18.80;76.50;99875.00;5036866;28;19931;-70
2021/08/21 05:36:08;;;;;;;;;;;;;;;18.91;76.17;99876.34;5051436;28;20023;-70
2021/08/21 05:38:42;;;;;;;;;;;;;;;18.95;75.80;99884.88;5054814;28;20408;-70
2021/08/21 05:41:11;;;;;;;;;;;;;;;19.04;75.82;99884.56;5053961;28;20341;-70
2021/08/21 05:43:43;;;;;;;;;;;;;;;19.13;75.83;99876.50;5056014;28;19925;-69
2021/08/21 05:46:15;;;;;;;;;;;;;;;19.21;75.28;99877.97;5053107;28;19925;-71
2021/08/21 05:48:45;;;;;;;;;;;;;;;19.30;75.12;99882.84;5049135;28;19994;-71
2021/08/21 05:51:14;;;;;;;;;;;;;;;19.41;74.96;99885.13;5052547;28;20531;-70
2021/08/21 05:53:44;;;;;;;;;;;;;;;19.48;74.80;99891.78;5053755;28;19925;-70
2021/08/21 05:56:13;;;;;;;;;;;;;;;19.55;74.40;99888.09;5053356;28;19925;-69
2021/08/21 05:58:42;;;;;;;;;;;;;;;19.64;74.27;99895.53;5053704;28;20024;-70
2021/08/21 06:01:10;;;;;;;;;;;;;;;19.78;74.29;99882.94;5052731;28;19925;-70
2021/08/21 06:03:39;;;;;;;;;;;;;;;19.93;74.18;99895.38;5050283;28;19960;-73
2021/08/21 06:06:12;;;;;;;;;;;;;;;20.11;73.83;99893.03;5053574;28;19929;-70
2021/08/21 06:08:42;;;;;;;;;;;;;;;20.26;73.35;99898.53;5053110;28;19932;-71
2021/08/21 06:11:15;;;;;;;;;;;;;;;20.38;73.12;99897.22;5036465;28;19999;-70
2021/08/21 06:13:47;;;;;;;;;;;;;;;20.48;72.94;99898.56;5054967;28;19929;-70
2021/08/21 06:16:16;;;;;;;;;;;;;;;20.57;72.45;99903.41;5057592;28;19951;-71
2021/08/21 06:18:45;;;;;;;;;;;;;;;20.70;72.23;99896.84;5053207;28;19937;-71
2021/08/21 06:21:14;;;;;;;;;;;;;;;20.78;71.40;99902.59;5045077;28;19971;-70
2021/08/21 06:23:43;;;;;;;;;;;;;;;20.83;71.14;99895.47;5053854;28;19924;-70
2021/08/21 06:26:12;;;;;;;;;;;;;;;20.94;71.02;99901.09;5052014;28;19925;-71
2021/08/21 06:28:42;;;;;;;;;;;;;;;20.99;70.57;99888.78;5051139;28;19929;-71
2021/08/21 06:31:11;;;;;;;;;;;;;;;21.03;70.11;99892.94;5051346;28;19924;-71
2021/08/21 06:33:39;;;;;;;;;;;;;;;21.10;69.62;99878.00;5053313;28;20388;-70
2021/08/21 06:36:08;;;;;;;;;;;;;;;21.16;69.49;99883.78;5053796;28;19955;-72
2021/08/21 06:38:36;;;;;;;;;;;;;;;21.32;69.06;99889.19;5049725;28;20035;-71
2021/08/21 06:41:05;;;;;;;;;;;;;;;21.42;68.43;99889.66;5053365;28;19931;-71
2021/08/21 06:43:34;;;;;;;;;;;;;;;21.53;68.23;99887.44;5053586;28;20332;-71
2021/08/21 06:46:12;;;;;;;;;;;;;;;21.61;67.66;99890.59;5036658;28;20049;-71
2021/08/21 06:48:41;;;;;;;;;;;;;;;21.65;67.41;99885.19;5049895;28;19925;-72
2021/08/21 06:51:13;;;;;;;;;;;;;;;21.68;67.30;99884.22;5043558;28;19925;-71
2021/08/21 06:53:45;;;;;;;;;;;;;;;21.80;66.89;99888.88;5053003;28;19970;-70
2021/08/21 06:56:17;;;;;;;;;;;;;;;21.85;66.47;99889.56;5052665;28;19924;-71
2021/08/21 06:58:48;;;;;;;;;;;;;;;21.88;66.26;99892.88;5049528;28;19929;-71
2021/08/21 07:01:22;;;;;;;;;;;;;;;22.02;66.35;99889.69;5053181;28;19968;-72
2021/08/21 07:03:51;;;;;;;;;;;;;;;22.19;66.30;99889.78;5052316;28;20023;-71
2021/08/21 07:06:20;;;;;;;;;;;;;;;22.33;65.85;99891.75;5052584;28;20318;-70
2021/08/21 07:08:48;;;;;;;;;;;;;;;22.39;65.46;99897.50;5051360;28;19925;-70
2021/08/21 07:11:17;;;;;;;;;;;;;;;22.45;65.28;99892.03;5056615;28;19954;-71
2021/08/21 07:13:46;;;;;;;;;;;;;;;22.54;65.34;99895.97;5051051;28;20370;-71
2021/08/21 07:16:15;;;;;;;;;;;;;;;22.60;65.05;99891.31;5052916;28;19925;-71
2021/08/21 07:18:45;;;;;;;;;;;;;;;22.63;64.75;99896.41;5050267;28;20027;-71
2021/08/21 07:21:14;;;;;;;;;;;;;;;22.74;64.93;99902.88;5052874;28;19924;-70
2021/08/21 07:23:43;;;;;;;;;;;;;;;22.85;64.45;99905.81;5052301;28;19925;-72
2021/08/21 07:26:12;;;;;;;;;;;;;;;22.91;63.94;99905.56;5052956;28;19947;-71
2021/08/21 07:28:44;;;;;;;;;;;;;;;23.04;64.06;99912.69;5050503;28;19971;-71
2021/08/21 07:31:16;;;;;;;;;;;;;;;23.22;63.77;99906.63;5050463;28;19932;-71
2021/08/21 07:33:47;;;;;;;;;;;;;;;23.38;63.72;99906.72;5051468;28;19971;-71
2021/08/21 07:36:17;;;;;;;;;;;;;;;23.48;62.99;99907.97;5051754;28;19925;-71
2021/08/21 07:38:46;;;;;;;;;;;;;;;23.43;62.21;99904.75;5048643;28;20370;-71
2021/08/21 07:41:18;;;;;;;;;;;;;;;23.57;62.30;99906.66;5052957;28;20378;-72
2021/08/21 07:43:47;;;;;;;;;;;;;;;23.71;61.85;99905.03;5053272;28;19925;-71
2021/08/21 07:46:16;;;;;;;;;;;;;;;23.76;61.59;99908.25;5035872;28;19931;-73
2021/08/21 07:48:46;;;;;;;;;;;;;;;23.79;61.68;99910.72;5053751;28;19933;-71
2021/08/21 07:51:18;;;;;;;;;;;;;;;23.66;61.07;99912.25;5054829;28;19952;-71
2021/08/21 07:53:47;;;;;;;;;;;;;;;23.70;61.47;99915.53;5058361;28;20034;-71
2021/08/21 07:56:16;;;;;;;;;;;;;;;23.81;61.83;99919.28;5057987;28;19964;-72
2021/08/21 07:58:44;;;;;;;;;;;;;;;23.86;61.02;99917.28;5055755;28;19929;-71
2021/08/21 08:01:13;;;;;;;;;;;;;;;24.10;61.06;99923.03;5056423;28;20325;-71
2021/08/21 08:03:42;;;;;;;;;;;;;;;24.24;59.82;99923.16;5056831;28;20421;-71
2021/08/21 08:06:13;;;;;;;;;;;;;;;24.34;58.98;99926.97;5057474;28;19975;-71
2021/08/21 08:08:42;;;;;;;;;;;;;;;24.43;59.08;99928.22;5056356;28;19925;-72
2021/08/21 08:11:14;;;;;;;;;;;;;;;24.57;58.84;99925.75;5067800;28;20032;-71
2021/08/21 08:13:43;;;;;;;;;;;;;;;24.72;58.73;99927.50;5056330;28;20027;-71
2021/08/21 08:16:13;;;;;;;;;;;;;;;24.72;58.04;99935.34;5057058;28;20363;-71
2021/08/21 08:18:41;;;;;;;;;;;;;;;24.80;57.67;99930.59;5054358;28;19925;-72
2021/08/21 08:21:11;;;;;;;;;;;;;;;24.93;57.59;99931.56;5055065;28;20062;-71
2021/08/21 08:23:41;;;;;;;;;;;;;;;24.98;57.10;99940.00;5056925;28;19924;-71
2021/08/21 08:26:10;;;;;;;;;;;;;;;25.01;56.32;99932.00;5069099;28;20027;-71
2021/08/21 08:28:42;;;;;;;;;;;;;;;25.13;57.02;99938.31;5057417;28;19947;-71
2021/08/21 08:31:16;;;;;;;;;;;;;;;25.04;56.76;99944.91;5057071;28;20286;-71
2021/08/21 08:33:45;;;;;;;;;;;;;;;25.25;56.23;99938.47;5054779;28;19933;-71
2021/08/21 08:36:16;;;;;;;;;;;;;;;25.50;55.50;99934.50;5056018;28;20298;-71
2021/08/21 08:38:47;;;;;;;;;;;;;;;25.69;55.85;99933.34;5052460;28;19932;-71
2021/08/21 08:41:16;;;;;;;;;;;;;;;25.82;54.64;99941.28;5055518;28;20445;-71
2021/08/21 08:43:45;;;;;;;;;;;;;;;25.90;54.07;99942.53;5056823;28;19979;-71
2021/08/21 08:46:15;;;;;;;;;;;;;;;25.98;53.99;99936.84;5057063;28;19975;-71
2021/08/21 08:48:46;;;;;;;;;;;;;;;25.94;53.64;99937.94;5046704;28;19952;-71
2021/08/21 08:51:15;;;;;;;;;;;;;;;25.92;53.31;99931.97;5050791;28;19925;-71
2021/08/21 08:53:45;;;;;;;;;;;;;;;26.15;53.63;99941.94;5049996;28;19929;-71
2021/08/21 08:56:15;;;;;;;;;;;;;;;26.33;52.90;99930.34;5053992;28;19925;-72
2021/08/21 08:58:47;;;;;;;;;;;;;;;26.46;52.57;99933.91;5055187;28;19928;-71
2021/08/21 09:01:22;;;;;;;;;;;;;;;26.57;52.16;99939.31;5055378;28;19931;-72
2021/08/21 09:03:52;;;;;;;;;;;;;;;26.61;51.30;99929.47;5052989;28;19932;-72
2021/08/21 09:06:34;;;;;;;;;;;;;;;26.59;51.09;99931.34;5021182;28;19978;-70
2021/08/21 09:09:10;;;;;;;;;;;;;;;26.51;50.48;99934.44;5052410;28;19925;-71
2021/08/21 09:11:44;;;;;;;;;;;;;;;26.54;50.90;99934.25;5045067;28;20298;-71
2021/08/21 09:14:16;;;;;;;;;;;;;;;26.60;50.93;99933.03;5052889;28;20364;-71
2021/08/21 09:16:45;;;;;;;;;;;;;;;26.64;50.97;99939.75;5055809;28;20302;-72
2021/08/21 09:19:22;;;;;;;;;;;;;;;26.92;50.34;99937.09;5054599;28;19925;-71
2021/08/21 09:22:02;;;;;;;;;;;;;;;27.16;51.31;99937.31;5038094;28;20366;-71
2021/08/21 09:24:32;;;;;;;;;;;;;;;27.11;50.41;99926.28;5051111;28;19931;-72
2021/08/21 09:27:13;;;;;;;;;;;;;;;26.98;50.51;99928.00;5044472;28;19933;-72
2021/08/21 09:29:44;;;;;;;;;;;;;;;27.28;50.18;99931.28;5054358;28;19932;-71
2021/08/21 09:32:13;;;;;;;;;;;;;;;27.60;49.08;99930.03;5050984;28;19925;-72
2021/08/21 09:34:48;;;;;;;;;;;;;;;27.57;50.75;99932.84;5054624;28;19968;-72
2021/08/21 09:37:18;;;;;;;;;;;;;;;27.35;50.61;99927.31;5054786;28;20277;-71
2021/08/21 09:39:47;;;;;;;;;;;;;;;26.84;50.46;99928.06;5035653;28;20386;-71
2021/08/21 09:42:16;;;;;;;;;;;;;;;26.82;49.28;99928.16;5050742;28;19964;-71
2021/08/21 09:44:46;;;;;;;;;;;;;;;27.01;48.71;99927.81;5053858;28;19937;-71
2021/08/21 09:47:18;;;;;;;;;;;;;;;27.33;48.91;99923.94;5053583;28;19925;-71
2021/08/21 09:49:49;;;;;;;;;;;;;;;27.58;49.41;99921.41;5053979;28;20024;-73
2021/08/21 09:52:19;;;;;;;;;;;;;;;27.84;48.07;99917.88;5047743;28;20759;-73
2021/08/21 09:55:03;;;;;;;;;;;;;;;28.07;47.13;99912.88;5044116;28;19925;-72
2021/08/21 09:57:32;;;;;;;;;;;;;;;28.00;46.15;99914.25;5053686;28;20430;-72
2021/08/21 10:00:04;;;;;;;;;;;;;;;28.13;45.86;99915.06;5032952;28;19971;-71
2021/08/21 10:02:43;;;;;;;;;;;;;;;27.95;45.91;99911.06;5048294;28;19967;-72
2021/08/21 10:05:13;;;;;;;;;;;;;;;27.90;46.19;99920.09;5050232;28;19931;-72
2021/08/21 10:07:46;;;;;;;;;;;;;;;27.67;48.10;99910.31;5051882;28;19924;-72
2021/08/21 10:10:17;;;;;;;;;;;;;;;27.15;47.59;99909.41;5054517;28;19925;-71
2021/08/21 10:12:47;;;;;;;;;;;;;;;26.82;47.89;99911.59;5054464;28;19925;-71
2021/08/21 10:15:20;;;;;;;;;;;;;;;26.63;47.08;99912.72;5057524;28;20389;-72
2021/08/21 10:17:50;;;;;;;;;;;;;;;26.88;48.86;99912.03;5054062;28;19929;-72
2021/08/21 10:20:20;;;;;;;;;;;;;;;27.46;49.26;99908.28;5054662;28;20286;-72
2021/08/21 10:22:49;;;;;;;;;;;;;;;27.88;47.92;99906.22;5052238;28;19970;-72
2021/08/21 10:25:21;;;;;;;;;;;;;;;28.22;46.96;99903.97;5052340;28;19932;-71
2021/08/21 10:27:53;;;;;;;;;;;;;;;28.54;45.38;99915.66;5054888;28;19947;-71
2021/08/21 10:30:39;;;;;;;;;;;;;;;28.66;44.51;99909.56;5052171;28;20432;-71
2021/08/21 10:33:08;;;;;;;;;;;;;;;28.58;43.89;99898.72;5051660;28;19924;-71
2021/08/21 10:35:45;;;;;;;;;;;;;;;28.69;43.33;99908.50;5051951;28;20378;-71
2021/08/21 10:38:24;;;;;;;;;;;;;;;28.25;43.57;99906.34;5067364;28;20370;-71
2021/08/21 10:40:54;;;;;;;;;;;;;;;27.85;43.99;99906.47;5052628;28;20366;-71
2021/08/21 10:43:41;;;;;;;;;;;;;;;27.46;44.74;99903.03;5054535;28;19932;-71
2021/08/21 10:46:12;;;;;;;;;;;;;;;27.26;45.36;99901.69;5054497;28;20023;-71
2021/08/21 10:48:51;;;;;;;;;;;;;;;27.57;44.89;99900.56;5054719;28;20393;-71
2021/08/21 10:51:34;;;;;;;;;;;;;;;27.79;45.49;99898.97;5054869;28;19936;-71
2021/08/21 10:54:18;;;;;;;;;;;;;;;28.30;45.56;99909.50;5054709;28;20020;-71
2021/08/21 10:57:16;;;;;;;;;;;;;;;28.64;43.60;99905.34;5039113;28;19932;-71
2021/08/21 10:59:48;;;;;;;;;;;;;;;28.67;42.64;99906.00;5054655;28;19925;-71
2021/08/21 11:02:32;;;;;;;;;;;;;;;28.75;42.43;99903.63;5054173;28;19925;-71
2021/08/21 11:05:06;;;;;;;;;;;;;;;29.04;42.08;99901.53;5054194;28;20011;-72
2021/08/21 11:07:44;;;;;;;;;;;;;;;29.27;41.55;99894.63;5054222;28;19924;-71
2021/08/21 11:10:30;;;;;;;;;;;;;;;29.29;41.21;99887.44;5054391;28;20374;-71
2021/08/21 11:12:59;;;;;;;;;;;;;;;29.23;42.04;99893.16;4992859;28;20357;-71
2021/08/21 11:15:31;;;;;;;;;;;;;;;29.20;42.67;99884.53;4993392;28;19925;-71
2021/08/21 11:18:01;;;;;;;;;;;;;;;28.51;42.81;99900.94;4992689;28;20432;-71
2021/08/21 11:20:36;;;;;;;;;;;;;;;28.11;43.87;99895.97;4992400;28;19930;-71
2021/08/21 11:23:19;;;;;;;;;;;;;;;28.30;43.04;99891.13;4992711;28;20388;-71
2021/08/21 11:25:51;;;;;;;;;;;;;;;28.35;42.25;99895.09;4992721;28;19925;-70
2021/08/21 11:28:30;;;;;;;;;;;;;;;27.90;43.35;99883.38;4992859;28;19925;-71
2021/08/21 11:31:12;;;;;;;;;;;;;;;28.21;42.86;99889.13;4991953;28;20460;-72
2021/08/21 11:33:43;;;;;;;;;;;;;;;27.78;43.14;99889.44;4992667;28;19926;-71
2021/08/21 11:36:23;;;;;;;;;;;;;;;28.06;43.40;99898.06;4992532;28;19933;-71
2021/08/21 11:38:51;;;;;;;;;;;;;;;28.32;42.56;99894.47;4992840;28;19954;-71
2021/08/21 11:41:20;;;;;;;;;;;;;;;27.82;43.49;99890.91;4993101;28;19930;-71
2021/08/21 11:43:49;;;;;;;;;;;;;;;27.44;43.33;99890.03;5016978;28;19925;-70
2021/08/21 11:46:24;;;;;;;;;;;;;;;27.96;43.06;99896.97;5053890;28;20019;-72
2021/08/21 11:48:52;;;;;;;;;;;;;;;28.53;41.68;99892.94;5054065;28;19925;-71
2021/08/21 11:51:23;;;;;;;;;;;;;;;28.79;41.47;99899.00;5053689;28;19925;-71
2021/08/21 11:53:52;;;;;;;;;;;;;;;29.00;41.41;99893.03;5035970;28;20338;-71
2021/08/21 11:56:21;;;;;;;;;;;;;;;28.72;41.36;99887.25;5053653;28;19935;-70
2021/08/21 11:58:49;;;;;;;;;;;;;;;28.58;41.29;99893.44;5054035;28;19933;-71
2021/08/21 12:01:25;;;;;;;;;;;;;;;28.53;42.12;99892.94;5053559;28;19975;-71
2021/08/21 12:06:35;;;;;;;;;;;;;;;27.68;43.31;99888.38;5053591;28;19971;-72
2021/08/21 12:09:07;;;;;;;;;;;;;;;27.53;43.50;99894.66;5053581;28;20024;-71
2021/08/21 12:11:36;;;;;;;;;;;;;;;27.31;45.40;99886.50;5053521;28;19970;-70
2021/08/21 12:14:05;;;;;;;;;;;;;;;27.23;46.89;99888.81;5053428;28;20386;-70
2021/08/21 12:16:35;;;;;;;;;;;;;;;27.14;45.98;99892.00;5053236;28;20433;-70
2021/08/21 12:19:05;;;;;;;;;;;;;;;27.06;45.96;99896.91;5053428;28;19975;-70
2021/08/21 12:21:36;;;;;;;;;;;;;;;27.05;46.66;99890.84;5053371;28;19924;-70
2021/08/21 12:24:08;;;;;;;;;;;;;;;27.65;44.60;99883.34;5053455;28;19932;-70
2021/08/21 12:26:38;;;;;;;;;;;;;;;28.40;42.93;99892.16;5048854;28;19937;-71
2021/08/21 12:29:07;;;;;;;;;;;;;;;28.85;41.67;99894.16;5048986;28;19932;-71
2021/08/21 12:31:36;;;;;;;;;;;;;;;29.23;41.61;99877.41;5033493;28;20345;-71
2021/08/21 12:34:05;;;;;;;;;;;;;;;29.62;41.29;99880.47;5057082;28;19925;-71
2021/08/21 12:36:41;;;;;;;;;;;;;;;29.84;40.34;99879.72;5056791;28;19940;-71
2021/08/21 12:39:12;;;;;;;;;;;;;;;29.98;40.11;99879.47;5055148;28;20448;-71
2021/08/21 12:41:48;;;;;;;;;;;;;;;30.09;39.11;99874.22;5056675;28;19929;-71
2021/08/21 12:44:18;;;;;;;;;;;;;;;30.07;40.28;99873.50;5053159;28;19925;-71
2021/08/21 12:46:54;;;;;;;;;;;;;;;29.60;40.79;99877.13;5054937;28;20347;-71
2021/08/21 12:49:30;;;;;;;;;;;;;;;29.98;40.44;99871.59;5052721;28;19932;-71
2021/08/21 12:52:03;;;;;;;;;;;;;;;30.26;39.23;99871.09;5037104;28;19931;-71
2021/08/21 12:54:32;;;;;;;;;;;;;;;30.51;39.09;99864.75;5037135;28;19933;-71
2021/08/21 12:57:11;;;;;;;;;;;;;;;30.67;38.61;99870.47;5042763;28;19933;-71
2021/08/21 12:59:41;;;;;;;;;;;;;;;30.48;38.13;99865.00;5056596;28;20378;-71
2021/08/21 13:02:10;;;;;;;;;;;;;;;29.48;39.42;99861.44;5047522;28;19925;-71
2021/08/21 13:04:40;;;;;;;;;;;;;;;28.93;40.16;99864.69;5036045;28;19925;-71
2021/08/21 13:07:10;;;;;;;;;;;;;;;29.17;39.95;99863.72;5042695;28;20014;-71
2021/08/21 13:09:40;;;;;;;;;;;;;;;28.89;40.65;99866.66;5054564;28;19968;-71
2021/08/21 13:12:09;;;;;;;;;;;;;;;28.51;40.91;99865.94;5055892;28;19924;-71
2021/08/21 13:14:38;;;;;;;;;;;;;;;28.96;40.47;99865.28;5056031;28;19924;-71